Granada, CO (81041)

08:55 PM MDT del 25 Ottobre 2014 (GMT -0600)
Schenck Farms | Change Station
CLOSE
Current Station
Stazione meteo personale
Location: Holly, CO
Altitudine: 3619 ft
Stazioni meteo nelle vicinanze

Alt. 3619 ft 37.90 °N, 102.11 °W | Updated 2 minutes ago

Sereno
Sereno
63.3 °F
Sembra 63.3 °F
N
11.0
Vento Variabile Vento da Sud
Gusts 12.0 mph

Oggi
Massima -- | Minima -- °F
--% Possibilità di precip.
Ieri
Massima -- | Minima -- °F
Precip. -- in
7:07 AM 5:58 PM
Luna crescente, 5% visible
Pressione 29.87 in
Visibilità 10.0 miglia
Nuvole Sereno
Punto di rugiada 37 °F
Umidità 38%
Piovosità 0.00 in
Spessore del manto nevoso Non disponibile.
Raggi UV 0 fuori da 12
Polline 2.50 fuori da 12
Qualità dell'aria Non disponibile.
Flu Activity Sporadic
METAR KLAA 260153Z AUTO 00000KT 10SM CLR 17/04 A2994 RMK AO2 SLP114 T01670039

More Conditions Fewer Conditions

Pressione 29.87 in
Visibilità 10.0 miglia
Nuvole Sereno
Punto di rugiada 37 °F
Umidità 38%
Piovosità 0.00 in
Spessore del manto nevoso Non disponibile.
Raggi UV 0 fuori da 12
Polline 2.50 fuori da 12
Qualità dell'aria Non disponibile.
Flu Activity Sporadic
METAR KLAA 260153Z AUTO 00000KT 10SM CLR 17/04 A2994 RMK AO2 SLP114 T01670039

More Conditions Fewer Conditions

10-Day Weather Forecast

Almanac

Astronomia

Oct. 25, 2014 Alba Tramonto
Ora attuale 07:07 MDT 17:58 MDT
Crepuscolo civile 06:40 MDT 18:25 MDT
Crepuscolo nautico 06:10 MDT 18:56 MDT
Crepuscolo astronomico 05:39 MDT 19:26 MDT
Luna 08:47 MDT (10/25) 19:24 MDT (10/25)
Estensione della luce visibile 11h 44m
Lunghezza del giorno
10h 50m
Tomorrow will be 2m 14s shorter.
Luna crescente, 5% of the Moon is Illuminated
Oggi
Luna crescente
Ott 30
Primo quarto
Nov 6
Luna piena
Nov 14
Ultimo quarto
Nov 22
Nuovo

Gli estremi di oggi

State Highs State Lows

Community

WunderPhotos

Upload Photos

1,765,086 foto caricate!

Nearby

Profondità neve

Stazione Profondità Altitudine
Glen Cove 1 in 11460 ft
Trinchera 1 in 10860 ft
Ute Creek 0 in 10650 ft
Medano Pass 0 in 9620 ft
Echo Lake 0 in 10600 ft

Attività sismica

Città  Distanza Mag. Data & Ora
Non sono state riportate attività sismiche nelle vicinanze.
Minimo Magnitudo Mostrato è 2.5.

Temperature delle acque costiere

Località Temperatura
Nessun dato dalle stazioni

Stazioni meteo nelle vicinanze